createdAt,value
2018-03-01T00:01:53.101Z,20.70
2018-03-01T00:04:19.756Z,21.02
2018-03-01T00:06:46.436Z,22.27
2018-03-01T00:09:13.165Z,21.62
2018-03-01T00:11:39.804Z,20.65
2018-03-01T00:14:06.524Z,21.50
2018-03-01T00:16:33.157Z,22.02
2018-03-01T00:18:59.863Z,19.27
2018-03-01T00:21:26.549Z,19.70
2018-03-01T00:23:53.241Z,22.55
2018-03-01T00:26:19.888Z,21.27
2018-03-01T00:28:46.693Z,21.30
2018-03-01T00:31:13.378Z,22.75
2018-03-01T00:33:39.997Z,23.00
2018-03-01T00:36:06.635Z,18.98
2018-03-01T00:38:33.373Z,23.77
2018-03-01T00:41:00.092Z,21.27
2018-03-01T00:43:26.780Z,21.40
2018-03-01T00:45:53.500Z,22.05
2018-03-01T00:48:20.161Z,21.17
2018-03-01T00:50:46.838Z,21.10
2018-03-01T00:53:13.555Z,22.42
2018-03-01T00:55:40.364Z,21.20
2018-03-01T00:58:07.063Z,21.75
2018-03-01T01:00:33.838Z,21.73
2018-03-01T01:03:00.472Z,23.48
2018-03-01T01:05:27.132Z,22.30
2018-03-01T01:07:53.809Z,23.08
2018-03-01T01:10:20.570Z,23.00
2018-03-01T01:12:47.296Z,21.65
2018-03-01T01:15:14.108Z,21.60
2018-03-01T01:17:40.802Z,21.10
2018-03-01T01:20:07.551Z,22.17
2018-03-01T01:22:34.428Z,21.98
2018-03-01T01:25:01.080Z,21.75
2018-03-01T01:27:27.730Z,22.05
2018-03-01T01:29:54.436Z,20.35
2018-03-01T01:32:21.106Z,22.98
2018-03-01T01:34:47.858Z,21.40
2018-03-01T01:37:14.555Z,21.00
2018-03-01T01:39:41.221Z,21.23
2018-03-01T01:42:07.903Z,23.10
2018-03-01T01:44:34.613Z,21.55
2018-03-01T01:47:01.277Z,21.20
2018-03-01T01:49:27.965Z,19.70
2018-03-01T01:51:54.716Z,21.77
2018-03-01T01:54:21.400Z,18.20
2018-03-01T01:56:48.056Z,23.62
2018-03-01T01:59:14.905Z,23.38
2018-03-01T02:01:41.542Z,21.77
2018-03-01T02:04:08.226Z,22.70
2018-03-01T02:06:34.980Z,18.60
2018-03-01T02:09:01.822Z,20.88
2018-03-01T02:11:28.456Z,21.20
2018-03-01T02:13:55.200Z,21.50
2018-03-01T02:16:21.861Z,21.37
2018-03-01T02:18:48.557Z,21.90
2018-03-01T02:21:15.228Z,21.98
2018-03-01T02:23:41.890Z,21.55
2018-03-01T02:26:08.553Z,21.92
2018-03-01T02:28:35.297Z,20.70
2018-03-01T02:31:02.036Z,21.37
2018-03-01T02:33:28.750Z,24.83
2018-03-01T02:35:55.413Z,24.27
2018-03-01T02:38:22.057Z,21.17
2018-03-01T02:40:48.733Z,22.27
2018-03-01T02:43:15.371Z,23.85
2018-03-01T02:45:42.000Z,22.20
2018-03-01T02:48:08.811Z,22.85
2018-03-01T02:50:35.461Z,17.70
2018-03-01T02:53:02.216Z,22.17
2018-03-01T02:55:28.872Z,24.23
2018-03-01T02:57:55.539Z,23.90
2018-03-01T03:00:22.422Z,20.65
2018-03-01T03:02:49.086Z,19.70
2018-03-01T03:05:15.741Z,24.87
2018-03-01T03:07:42.372Z,22.27
2018-03-01T03:10:09.033Z,22.30
2018-03-01T03:12:35.890Z,21.67
2018-03-01T03:15:02.873Z,22.45
2018-03-01T03:17:29.631Z,22.75
2018-03-01T03:19:56.287Z,23.00
2018-03-01T03:22:23.082Z,23.75
2018-03-01T03:24:49.717Z,21.92
2018-03-01T03:27:16.482Z,22.17
2018-03-01T03:29:43.168Z,23.70
2018-03-01T03:32:09.822Z,21.90
2018-03-01T03:34:36.493Z,20.65
2018-03-01T03:37:03.371Z,23.10
2018-03-01T03:39:30.165Z,23.70
2018-03-01T03:41:56.817Z,21.10
2018-03-01T03:44:23.519Z,19.65
2018-03-01T03:46:50.174Z,21.10
2018-03-01T03:49:16.844Z,20.92
2018-03-01T03:51:43.680Z,21.23
2018-03-01T03:54:10.356Z,19.50
2018-03-01T03:56:37.081Z,22.00
2018-03-01T03:59:03.753Z,22.98
2018-03-01T04:01:30.437Z,20.23
2018-03-01T04:03:57.100Z,20.70
2018-03-01T04:06:23.758Z,20.95
2018-03-01T04:08:50.559Z,19.77
2018-03-01T04:11:17.265Z,20.77
2018-03-01T04:13:43.965Z,21.45
2018-03-01T04:16:10.636Z,20.98
2018-03-01T04:18:37.316Z,22.13
2018-03-01T04:21:03.976Z,21.00
2018-03-01T04:23:31.210Z,20.40
2018-03-01T04:25:58.694Z,21.67
2018-03-01T04:28:25.326Z,21.00
2018-03-01T04:30:51.976Z,22.25
2018-03-01T04:33:18.626Z,21.62
2018-03-01T04:35:45.286Z,23.25
2018-03-01T04:38:11.913Z,20.52
2018-03-01T04:40:38.581Z,20.90
2018-03-01T04:43:05.283Z,21.48
2018-03-01T04:45:31.920Z,20.73
2018-03-01T04:47:58.617Z,22.05
2018-03-01T04:50:25.272Z,18.50
2018-03-01T04:52:51.941Z,21.30
2018-03-01T04:55:18.588Z,24.05
2018-03-01T04:57:45.248Z,21.08
2018-03-01T05:00:11.913Z,22.67
2018-03-01T05:02:38.559Z,21.70
2018-03-01T05:05:05.213Z,22.30
2018-03-01T05:07:31.965Z,21.83
2018-03-01T05:09:58.652Z,22.52
2018-03-01T05:12:25.304Z,20.73
2018-03-01T05:14:51.950Z,22.58
2018-03-01T05:17:18.586Z,22.67
2018-03-01T05:19:45.385Z,21.80
2018-03-01T05:22:12.023Z,21.65
2018-03-01T05:24:38.669Z,21.37
2018-03-01T05:27:05.388Z,21.77
2018-03-01T05:29:32.088Z,21.77
2018-03-01T05:31:58.719Z,21.52
2018-03-01T05:34:25.407Z,20.50
2018-03-01T05:36:52.063Z,22.55
2018-03-01T05:39:18.774Z,21.10
2018-03-01T05:41:45.474Z,23.10
2018-03-01T05:44:12.141Z,22.52
2018-03-01T05:46:38.801Z,21.95
2018-03-01T05:49:05.496Z,22.92
2018-03-01T05:51:32.170Z,20.33
2018-03-01T05:53:58.905Z,21.83
2018-03-01T05:56:25.586Z,22.77
2018-03-01T05:58:52.359Z,22.95
2018-03-01T06:01:19.921Z,22.90
2018-03-01T06:03:46.673Z,23.08
2018-03-01T06:06:13.526Z,23.08
2018-03-01T06:08:40.762Z,21.48
2018-03-01T06:11:07.433Z,20.73
2018-03-01T06:13:34.075Z,21.05
2018-03-01T06:16:00.721Z,20.52
2018-03-01T06:18:27.650Z,21.05
2018-03-01T06:20:54.554Z,21.17
2018-03-01T06:23:21.457Z,21.25
2018-03-01T06:25:48.144Z,22.02
2018-03-01T06:28:14.842Z,22.05
2018-03-01T06:30:41.592Z,22.30
2018-03-01T06:33:08.276Z,23.42
2018-03-01T06:35:38.611Z,24.27
2018-03-01T06:38:05.486Z,20.75
2018-03-01T06:40:32.143Z,21.75
2018-03-01T06:42:58.796Z,21.60
2018-03-01T06:45:25.475Z,21.23
2018-03-01T06:47:52.167Z,20.33
2018-03-01T06:50:18.814Z,21.23
2018-03-01T06:52:45.523Z,20.15
2018-03-01T06:55:12.265Z,20.83
2018-03-01T06:57:38.993Z,22.05
2018-03-01T07:00:05.927Z,22.33
2018-03-01T07:02:32.594Z,19.80
2018-03-01T07:04:59.222Z,21.17
2018-03-01T07:07:25.882Z,20.65
2018-03-01T07:09:52.529Z,21.70
2018-03-01T07:12:19.220Z,21.50
2018-03-01T07:14:45.872Z,22.85
2018-03-01T07:17:12.568Z,21.92
2018-03-01T07:19:39.289Z,22.00
2018-03-01T07:22:05.983Z,21.58
2018-03-01T07:24:32.626Z,20.85
2018-03-01T07:26:59.295Z,21.95
2018-03-01T07:29:25.979Z,20.12
2018-03-01T07:31:52.626Z,19.48
2018-03-01T07:34:19.358Z,20.88
2018-03-01T07:36:46.057Z,22.27
2018-03-01T07:39:12.732Z,20.30
2018-03-01T07:41:39.370Z,22.52
2018-03-01T07:44:06.120Z,22.23
2018-03-01T07:46:32.831Z,21.75
2018-03-01T07:48:59.543Z,21.37
2018-03-01T07:51:26.253Z,21.50
2018-03-01T07:53:53.003Z,22.35
2018-03-01T07:56:19.686Z,22.10
2018-03-01T07:58:46.395Z,21.65
2018-03-01T08:01:13.102Z,21.00
2018-03-01T08:03:39.811Z,20.50
2018-03-01T08:06:06.540Z,20.55
2018-03-01T08:08:33.197Z,21.15
2018-03-01T08:10:59.972Z,21.00
2018-03-01T08:13:26.621Z,22.73
2018-03-01T08:15:53.285Z,21.48
2018-03-01T08:18:19.906Z,20.95
2018-03-01T08:20:46.567Z,21.60
2018-03-01T08:23:13.257Z,21.87
2018-03-01T08:25:39.977Z,21.75
2018-03-01T08:28:06.791Z,24.42
2018-03-01T08:30:33.479Z,21.35
2018-03-01T08:33:00.161Z,21.65
2018-03-01T08:35:26.952Z,22.73
2018-03-01T08:37:53.592Z,21.80
2018-03-01T08:40:20.566Z,22.90
2018-03-01T08:42:47.307Z,22.55
2018-03-01T08:45:13.942Z,21.33
2018-03-01T08:47:40.599Z,22.60
2018-03-01T08:50:07.256Z,23.42
2018-03-01T08:52:34.060Z,23.73
2018-03-01T08:55:00.814Z,21.90
2018-03-01T08:57:27.460Z,20.58
2018-03-01T08:59:54.332Z,21.25
2018-03-01T09:02:21.041Z,22.45
2018-03-01T09:04:47.739Z,23.02
2018-03-01T09:07:14.414Z,21.27
2018-03-01T09:09:41.231Z,21.58
2018-03-01T09:12:07.935Z,24.80
2018-03-01T09:14:34.947Z,21.33
2018-03-01T09:17:01.902Z,23.45
2018-03-01T09:19:28.654Z,20.85
2018-03-01T09:21:55.352Z,22.83
2018-03-01T09:24:22.081Z,21.45
2018-03-01T09:26:49.150Z,23.00
2018-03-01T09:29:15.766Z,21.45
2018-03-01T09:31:42.442Z,22.98
2018-03-01T09:34:09.101Z,22.77
2018-03-01T09:36:35.757Z,22.10
2018-03-01T09:39:02.395Z,21.27
2018-03-01T09:41:29.295Z,20.70
2018-03-01T09:43:55.925Z,22.75
2018-03-01T09:46:22.708Z,21.95
2018-03-01T09:48:49.494Z,23.05
2018-03-01T09:51:16.164Z,21.62
2018-03-01T09:53:42.866Z,22.55
2018-03-01T09:56:10.383Z,22.27
2018-03-01T09:58:37.060Z,23.12
2018-03-01T10:01:03.731Z,22.50
2018-03-01T10:03:30.445Z,22.30
2018-03-01T10:05:57.163Z,22.30
2018-03-01T10:08:24.026Z,20.98
2018-03-01T10:10:50.848Z,22.45
2018-03-01T10:13:17.536Z,23.65
2018-03-01T10:15:44.242Z,23.15
2018-03-01T10:18:10.912Z,23.50
2018-03-01T10:20:37.588Z,23.65
2018-03-01T10:23:04.242Z,21.92
2018-03-01T10:25:30.939Z,23.08
2018-03-01T10:27:57.599Z,22.17
2018-03-01T10:30:24.264Z,24.63
2018-03-01T10:32:50.922Z,22.67
2018-03-01T10:35:17.648Z,21.67
2018-03-01T10:37:44.403Z,22.42
2018-03-01T10:40:11.140Z,24.15
2018-03-01T10:42:37.807Z,23.85
2018-03-01T10:45:04.568Z,21.42
2018-03-01T10:47:31.388Z,22.65
2018-03-01T10:49:58.045Z,20.95
2018-03-01T10:52:24.791Z,24.35
2018-03-01T10:54:51.509Z,22.02
2018-03-01T10:57:18.974Z,23.05
2018-03-01T10:59:45.803Z,22.87
2018-03-01T11:02:12.452Z,23.98
2018-03-01T11:04:39.206Z,22.95
2018-03-01T11:07:05.962Z,23.20
2018-03-01T11:09:32.663Z,23.25
2018-03-01T11:11:59.419Z,21.73
2018-03-01T11:14:26.900Z,23.52
2018-03-01T11:16:53.575Z,22.20
2018-03-01T11:19:20.277Z,21.67
2018-03-01T11:21:47.400Z,22.45
2018-03-01T11:24:14.137Z,24.08
2018-03-01T11:26:41.219Z,22.27
2018-03-01T11:29:08.083Z,22.10
2018-03-01T11:31:34.744Z,22.43
2018-03-01T11:34:01.431Z,22.63
2018-03-01T11:36:28.074Z,22.60
2018-03-01T11:38:54.751Z,22.23
2018-03-01T11:41:21.496Z,23.20
2018-03-01T11:43:48.260Z,23.27
2018-03-01T11:46:15.012Z,22.20
2018-03-01T11:48:41.739Z,22.03
2018-03-01T11:51:08.410Z,22.30
2018-03-01T11:53:35.058Z,20.87
2018-03-01T11:56:01.732Z,21.60
2018-03-01T11:58:29.293Z,22.73
2018-03-01T12:00:56.073Z,24.10
2018-03-01T12:03:22.706Z,21.07
2018-03-01T12:05:49.498Z,21.17
2018-03-01T12:08:16.213Z,22.50
2018-03-01T12:10:42.927Z,23.10
2018-03-01T12:13:09.609Z,23.63
2018-03-01T12:15:36.221Z,23.17
2018-03-01T12:18:03.069Z,23.97
2018-03-01T12:20:29.747Z,21.50
2018-03-01T12:22:59.138Z,23.63
2018-03-01T12:25:25.807Z,20.60
2018-03-01T12:27:52.702Z,22.70
2018-03-01T12:30:19.543Z,23.30
2018-03-01T12:32:46.173Z,21.40
2018-03-01T12:35:13.309Z,21.20
2018-03-01T12:37:40.293Z,23.40
2018-03-01T12:40:07.059Z,23.43
2018-03-01T12:42:33.755Z,22.43
2018-03-01T12:45:02.475Z,22.83
2018-03-01T12:47:30.838Z,22.70
2018-03-01T12:49:58.000Z,21.40
2018-03-01T12:52:25.204Z,23.83
2018-03-01T12:54:54.834Z,23.23
2018-03-01T12:57:21.558Z,22.27
2018-03-01T12:59:48.584Z,23.70
2018-03-01T13:02:15.267Z,22.70
2018-03-01T13:04:42.955Z,22.40
2018-03-01T13:07:09.965Z,23.37
2018-03-01T13:09:37.299Z,22.27
2018-03-01T13:12:05.636Z,22.03
2018-03-01T13:14:32.310Z,21.63
2018-03-01T13:17:12.419Z,22.50
2018-03-01T13:19:39.063Z,23.90
2018-03-01T13:22:10.368Z,23.37
2018-03-01T13:24:37.163Z,21.90
2018-03-01T13:27:03.822Z,21.57
2018-03-01T13:29:30.475Z,20.80
2018-03-01T13:32:07.200Z,23.43
2018-03-01T13:34:49.938Z,22.53
2018-03-01T13:37:16.591Z,22.97
2018-03-01T13:39:43.234Z,21.97
2018-03-01T13:42:19.806Z,21.97
2018-03-01T13:44:46.531Z,21.10
2018-03-01T13:47:13.190Z,22.43
2018-03-01T13:49:40.075Z,24.00
2018-03-01T13:52:06.725Z,22.97
2018-03-01T13:54:33.355Z,21.00
2018-03-01T13:57:00.044Z,23.63
2018-03-01T13:59:26.797Z,23.30
2018-03-01T14:01:53.453Z,22.50
2018-03-01T14:04:20.143Z,22.87
2018-03-01T14:06:47.440Z,22.00
2018-03-01T14:09:15.086Z,21.70
2018-03-01T14:11:41.702Z,23.50
2018-03-01T14:14:08.332Z,23.10
2018-03-01T14:16:34.996Z,21.40
2018-03-01T14:19:17.306Z,21.53
2018-03-01T14:21:49.774Z,23.50
2018-03-01T14:24:18.177Z,21.50
2018-03-01T14:26:55.039Z,22.47
2018-03-01T14:29:23.606Z,23.73
2018-03-01T14:31:50.331Z,21.20
2018-03-01T14:34:16.984Z,20.70
2018-03-01T14:36:43.654Z,22.13
2018-03-01T14:39:10.477Z,21.20
2018-03-01T14:41:37.145Z,21.80
2018-03-01T14:44:03.860Z,23.80
2018-03-01T14:46:31.134Z,21.30
2018-03-01T14:48:57.775Z,22.93
2018-03-01T14:51:24.468Z,22.27
2018-03-01T14:53:51.108Z,20.37
2018-03-01T14:56:17.779Z,20.20
2018-03-01T14:58:44.472Z,20.03
2018-03-01T15:01:11.275Z,21.27
2018-03-01T15:03:38.051Z,21.13
2018-03-01T15:06:04.752Z,21.20
2018-03-01T15:08:31.486Z,21.70
2018-03-01T15:10:58.177Z,21.27
2018-03-01T15:13:24.855Z,21.10
2018-03-01T15:15:51.497Z,22.17
2018-03-01T15:18:18.308Z,21.70
2018-03-01T15:20:44.975Z,20.87
2018-03-01T15:23:11.715Z,20.97
2018-03-01T15:25:38.442Z,22.93
2018-03-01T15:28:05.226Z,21.00
2018-03-01T15:30:31.863Z,22.07
2018-03-01T15:32:58.525Z,20.87
2018-03-01T15:35:25.208Z,19.87
2018-03-01T15:37:51.903Z,22.53
2018-03-01T15:40:18.585Z,22.57
2018-03-01T15:42:45.326Z,21.87
2018-03-01T15:45:12.077Z,21.70
2018-03-01T15:47:39.057Z,20.57
2018-03-01T15:50:05.700Z,21.17
2018-03-01T15:52:32.453Z,21.63
2018-03-01T15:54:59.118Z,22.63
2018-03-01T15:57:25.795Z,22.10
2018-03-01T15:59:52.482Z,22.80
2018-03-01T16:02:19.129Z,21.13
2018-03-01T16:04:45.775Z,23.37
2018-03-01T16:07:12.418Z,21.40
2018-03-01T16:09:39.176Z,21.73
2018-03-01T16:12:06.209Z,23.20
2018-03-01T16:14:32.831Z,22.63
2018-03-01T16:16:59.558Z,21.20
2018-03-01T16:19:26.572Z,22.53
2018-03-01T16:21:53.322Z,22.10
2018-03-01T16:24:20.020Z,22.73
2018-03-01T16:26:46.915Z,21.37
2018-03-01T16:29:13.639Z,22.60
2018-03-01T16:31:40.375Z,20.83
2018-03-01T16:34:07.150Z,21.43
2018-03-01T16:36:33.808Z,23.37
2018-03-01T16:39:03.543Z,22.87
2018-03-01T16:41:30.881Z,21.57
2018-03-01T16:43:57.652Z,21.30
2018-03-01T16:46:24.314Z,21.13
2018-03-01T16:48:50.955Z,22.80
2018-03-01T16:51:17.630Z,22.80
2018-03-01T16:53:44.324Z,21.07
2018-03-01T16:56:11.109Z,21.37
2018-03-01T16:58:37.798Z,21.20
2018-03-01T17:01:04.464Z,21.70
2018-03-01T17:03:31.119Z,21.80
2018-03-01T17:05:57.798Z,22.70
2018-03-01T17:08:24.491Z,22.30
2018-03-01T17:10:51.360Z,21.33
2018-03-01T17:13:18.002Z,22.43
2018-03-01T17:15:44.674Z,23.20
2018-03-01T17:18:11.331Z,20.30
2018-03-01T17:20:38.021Z,22.87
2018-03-01T17:23:04.673Z,21.00
2018-03-01T17:25:31.300Z,22.70
2018-03-01T17:27:57.983Z,22.20
2018-03-01T17:30:24.635Z,22.57
2018-03-01T17:32:51.262Z,20.40
2018-03-01T17:35:17.929Z,22.40
2018-03-01T17:37:44.693Z,23.13
2018-03-01T17:40:11.422Z,22.97
2018-03-01T17:42:38.077Z,23.50
2018-03-01T17:45:04.950Z,22.07
2018-03-01T17:47:31.733Z,22.27
2018-03-01T17:49:58.472Z,23.30
2018-03-01T17:52:25.285Z,22.97
2018-03-01T17:54:51.973Z,23.53
2018-03-01T17:57:18.622Z,24.47
2018-03-01T17:59:45.291Z,24.43
2018-03-01T18:02:11.945Z,25.13
2018-03-01T18:04:38.965Z,23.17
2018-03-01T18:07:05.630Z,25.47
2018-03-01T18:09:32.276Z,24.60
2018-03-01T18:11:59.189Z,24.23
2018-03-01T18:14:25.882Z,25.27
2018-03-01T18:16:52.830Z,25.50
2018-03-01T18:19:19.514Z,25.43
2018-03-01T18:21:46.911Z,23.63
2018-03-01T18:24:14.132Z,26.50
2018-03-01T18:26:40.884Z,24.17
2018-03-01T18:29:07.510Z,24.70
2018-03-01T18:31:35.119Z,24.30
2018-03-01T18:34:02.605Z,24.57
2018-03-01T18:36:29.343Z,22.90
2018-03-01T18:38:56.910Z,23.70
2018-03-01T18:41:24.227Z,23.83
2018-03-01T18:43:51.003Z,23.80
2018-03-01T18:46:17.675Z,23.50
2018-03-01T18:48:44.373Z,23.70
2018-03-01T18:51:11.033Z,21.53
2018-03-01T18:53:38.017Z,23.90
2018-03-01T18:56:04.862Z,23.90
2018-03-01T18:58:31.666Z,22.97
2018-03-01T19:00:58.356Z,24.13
2018-03-01T19:03:25.028Z,22.80
2018-03-01T19:05:51.881Z,23.93
2018-03-01T19:08:18.531Z,23.70
2018-03-01T19:10:45.262Z,25.20
2018-03-01T19:13:12.115Z,23.00
2018-03-01T19:15:38.798Z,24.40
2018-03-01T19:18:05.773Z,23.97
2018-03-01T19:20:32.707Z,25.43
2018-03-01T19:22:59.443Z,23.13
2018-03-01T19:25:26.211Z,23.77
2018-03-01T19:27:52.943Z,23.60
2018-03-01T19:30:19.611Z,24.37
2018-03-01T19:32:46.428Z,23.30
2018-03-01T19:35:13.147Z,24.50
2018-03-01T19:37:39.882Z,23.90
2018-03-01T19:40:06.573Z,23.10
2018-03-01T19:42:33.220Z,24.23
2018-03-01T19:44:59.862Z,24.10
2018-03-01T19:47:26.714Z,23.50
2018-03-01T19:49:53.787Z,23.83
2018-03-01T19:52:20.458Z,23.93
2018-03-01T19:54:47.116Z,24.47
2018-03-01T19:57:13.810Z,23.40
2018-03-01T19:59:40.567Z,23.63
2018-03-01T20:02:07.380Z,23.77
2018-03-01T20:04:34.042Z,25.57
2018-03-01T20:07:00.776Z,23.50
2018-03-01T20:09:28.167Z,23.70
2018-03-01T20:11:55.015Z,24.47
2018-03-01T20:14:22.112Z,24.77
2018-03-01T20:16:48.751Z,23.60
2018-03-01T20:19:15.432Z,24.10
2018-03-01T20:21:42.079Z,23.70
2018-03-01T20:24:08.816Z,26.83
2018-03-01T20:26:35.552Z,26.20
2018-03-01T20:29:02.186Z,24.93
2018-03-01T20:31:29.231Z,24.73
2018-03-01T20:33:55.973Z,24.27
2018-03-01T20:36:22.629Z,23.63
2018-03-01T20:38:49.340Z,25.50
2018-03-01T20:41:16.161Z,26.20
2018-03-01T20:43:42.866Z,23.80
2018-03-01T20:46:09.543Z,25.50
2018-03-01T20:48:36.206Z,24.00
2018-03-01T20:51:03.119Z,24.52
2018-03-01T20:53:29.765Z,24.77
2018-03-01T20:55:56.535Z,25.23
2018-03-01T20:58:23.277Z,24.57
2018-03-01T21:00:50.530Z,23.90
2018-03-01T21:03:17.433Z,25.63
2018-03-01T21:05:44.108Z,24.67
2018-03-01T21:08:10.739Z,25.10
2018-03-01T21:10:37.424Z,25.60
2018-03-01T21:13:04.261Z,25.33
2018-03-01T21:15:31.018Z,24.80
2018-03-01T21:17:57.714Z,25.83
2018-03-01T21:20:24.393Z,24.52
2018-03-01T21:22:51.167Z,26.07
2018-03-01T21:25:17.819Z,24.80
2018-03-01T21:27:45.086Z,24.90
2018-03-01T21:30:12.151Z,25.63
2018-03-01T21:32:38.848Z,24.97
2018-03-01T21:35:05.494Z,26.50
2018-03-01T21:37:32.153Z,24.00
2018-03-01T21:39:58.848Z,25.00
2018-03-01T21:42:33.900Z,26.60
2018-03-01T21:45:00.729Z,25.73
2018-03-01T21:47:27.369Z,24.57
2018-03-01T21:49:54.128Z,25.23
2018-03-01T21:52:20.830Z,25.47
2018-03-01T21:54:47.461Z,25.12
2018-03-01T21:57:14.202Z,24.70
2018-03-01T21:59:40.824Z,25.10
2018-03-01T22:02:07.610Z,27.97
2018-03-01T22:04:34.260Z,24.17
2018-03-01T22:07:01.016Z,24.67
2018-03-01T22:09:27.751Z,25.47
2018-03-01T22:11:54.420Z,25.70
2018-03-01T22:14:21.061Z,25.80
2018-03-01T22:16:47.717Z,25.75
2018-03-01T22:19:14.411Z,26.53
2018-03-01T22:21:41.057Z,24.90
2018-03-01T22:24:07.875Z,25.85
2018-03-01T22:26:36.078Z,27.48
2018-03-01T22:29:02.787Z,26.27
2018-03-01T22:31:29.453Z,26.02
2018-03-01T22:33:56.136Z,24.33
2018-03-01T22:36:27.302Z,26.70
2018-03-01T22:38:53.985Z,27.27
2018-03-01T22:41:20.688Z,27.27
2018-03-01T22:43:47.420Z,24.92
2018-03-01T22:46:15.248Z,25.70
2018-03-01T22:48:42.302Z,26.17
2018-03-01T22:51:09.080Z,27.08
2018-03-01T22:53:36.816Z,24.90
2018-03-01T22:56:03.545Z,27.75
2018-03-01T22:58:30.174Z,27.67
2018-03-01T23:00:56.836Z,27.87
2018-03-01T23:03:23.493Z,28.10
2018-03-01T23:05:51.089Z,26.20
2018-03-01T23:08:17.708Z,27.10
2018-03-01T23:10:44.359Z,26.90
2018-03-01T23:13:11.124Z,26.92
2018-03-01T23:15:37.823Z,27.83
2018-03-01T23:18:04.556Z,27.80
2018-03-01T23:20:31.196Z,26.47
2018-03-01T23:22:57.832Z,26.70
2018-03-01T23:25:24.618Z,28.63
2018-03-01T23:27:51.526Z,27.37
2018-03-01T23:30:18.340Z,28.30
2018-03-01T23:32:45.022Z,26.80
2018-03-01T23:35:11.696Z,27.70
2018-03-01T23:37:38.331Z,27.93
2018-03-01T23:40:04.963Z,28.37
2018-03-01T23:42:31.626Z,28.80
2018-03-01T23:44:58.314Z,26.43
2018-03-01T23:47:25.026Z,29.23
2018-03-01T23:49:52.416Z,27.10
2018-03-01T23:52:19.118Z,26.90
2018-03-01T23:54:45.808Z,29.50
2018-03-01T23:57:12.484Z,30.08
2018-03-01T23:59:39.181Z,28.55
